PWSweather.com
Personal Weather Stations
Station Observations

ChardChardGB

Lat: 50.877408, Lon: -2.94964741

Elevation: 341

Station Type: WS3083

http://www.merriott-astro.co.uk/weather/index.htm

High Low Average
Temperature 53.6°F12.0°C 37.0°F2.8°C 45.1°F7.3°C
Dew Point 38.2°F3.4°C 27.8°F-2.3°C 34.0°F1.1°C
Winds 15.5 mph 24.9 kmh 1.7 mph 2.7 kmh 8.0 mph NW12.9 kmh NW
Wind Gusts 22.1 mph35.6 kmh 3.1 mph5.0 kmh 11.0 mph17.7 kmh
Humidity 82% 40% 66%
Pressure 29.78 in1008.5 mb 29.24 in990.2 mb -
Precipitation 0.04 in1.0 mm - -
Hour Temp Dew Point Humidity Winds Wind Gusts Pressure Precip Precip Rate Daily Precip Total
12:00 AM 43.2°F6.2°C 36.1°F2.3°C 76% 10.4 mph NW16.7 kmh NW 14.5 mph23.3 kmh 29.24 in990.2 mb 0.00 in0.0 mm 0.00 in0.0 mm 0.00 in0.0 mm
12:10 AM 43.0°F6.1°C 36.3°F2.4°C 77% 9.1 mph NW14.6 kmh NW 12.1 mph19.5 kmh 29.24 in990.2 mb 0.00 in0.0 mm 0.00 in0.0 mm 0.00 in0.0 mm
12:20 AM 43.0°F6.1°C 36.3°F2.4°C 77% 8.1 mph NW13.0 kmh NW 11.4 mph18.3 kmh 29.24 in990.2 mb 0.00 in0.0 mm 0.00 in0.0 mm 0.00 in0.0 mm
12:30 AM 42.6°F5.9°C 35.9°F2.2°C 77% 5.7 mph NW9.2 kmh NW 6.9 mph11.1 kmh 29.24 in990.2 mb 0.00 in0.0 mm 0.00 in0.0 mm 0.00 in0.0 mm
12:40 AM 42.6°F5.9°C 36.3°F2.4°C 78% 6.2 mph NW10.0 kmh NW 10.7 mph17.2 kmh 29.25 in990.5 mb 0.00 in0.0 mm 0.00 in0.0 mm 0.00 in0.0 mm
12:50 AM 42.4°F5.8°C 36.1°F2.3°C 78% 6.2 mph W10.0 kmh W 8.3 mph13.4 kmh 29.25 in990.5 mb 0.00 in0.0 mm 0.00 in0.0 mm 0.00 in0.0 mm
01:00 AM 42.6°F5.9°C 36.3°F2.4°C 78% 6.8 mph NW10.9 kmh NW 9.2 mph14.8 kmh 29.26 in990.9 mb 0.00 in0.0 mm 0.00 in0.0 mm 0.00 in0.0 mm
01:10 AM 42.4°F5.8°C 35.8°F2.1°C 77% 6.3 mph NW10.1 kmh NW 9.8 mph15.8 kmh 29.26 in990.9 mb 0.00 in0.0 mm 0.00 in0.0 mm 0.00 in0.0 mm
01:20 AM 42.3°F5.7°C 35.2°F1.8°C 76% 6.9 mph NW11.1 kmh NW 10.7 mph17.2 kmh 29.27 in991.2 mb 0.00 in0.0 mm 0.00 in0.0 mm 0.00 in0.0 mm
01:30 AM 42.3°F5.7°C 35.6°F2.0°C 77% 5.7 mph NW9.2 kmh NW 9.2 mph14.8 kmh 29.26 in990.9 mb 0.00 in0.0 mm 0.00 in0.0 mm 0.00 in0.0 mm
01:40 AM 42.3°F5.7°C 35.6°F2.0°C 77% 5.7 mph NW9.2 kmh NW 7.6 mph12.2 kmh 29.27 in991.2 mb 0.00 in0.0 mm 0.00 in0.0 mm 0.00 in0.0 mm
01:50 AM 41.9°F5.5°C 35.6°F2.0°C 78% 6.1 mph WNW9.8 kmh WNW 8.3 mph13.4 kmh 29.27 in991.2 mb 0.00 in0.0 mm 0.00 in0.0 mm 0.00 in0.0 mm
02:00 AM 41.7°F5.4°C 35.4°F1.9°C 78% 6.9 mph W11.1 kmh W 9.8 mph15.8 kmh 29.27 in991.2 mb 0.00 in0.0 mm 0.00 in0.0 mm 0.00 in0.0 mm
02:10 AM 41.7°F5.4°C 35.4°F1.9°C 78% 6.4 mph NW10.3 kmh NW 9.8 mph15.8 kmh 29.27 in991.2 mb 0.00 in0.0 mm 0.00 in0.0 mm 0.00 in0.0 mm
02:20 AM 41.7°F5.4°C 35.7°F2.1°C 79% 6.1 mph NW9.8 kmh NW 8.3 mph13.4 kmh 29.29 in991.9 mb 0.00 in0.0 mm 0.00 in0.0 mm 0.00 in0.0 mm
02:30 AM 41.5°F5.3°C 35.5°F1.9°C 79% 11.1 mph NW17.9 kmh NW 14.5 mph23.3 kmh 29.28 in991.5 mb 0.01 in0.3 mm 0.06 in1.5 mm 0.01 in0.3 mm
02:40 AM 41.4°F5.2°C 35.0°F1.7°C 78% 8.3 mph WNW13.4 kmh WNW 10.7 mph17.2 kmh 29.29 in991.9 mb 0.01 in0.3 mm 0.00 in0.0 mm 0.01 in0.3 mm
02:50 AM 41.4°F5.2°C 35.0°F1.7°C 78% 9.0 mph NW14.5 kmh NW 12.1 mph19.5 kmh 29.29 in991.9 mb 0.01 in0.3 mm 0.00 in0.0 mm 0.01 in0.3 mm
03:00 AM 41.2°F5.1°C 34.9°F1.6°C 78% 8.0 mph NW12.9 kmh NW 9.8 mph15.8 kmh 29.29 in991.9 mb 0.01 in0.3 mm 0.00 in0.0 mm 0.01 in0.3 mm
03:10 AM 41.0°F5.0°C 34.7°F1.5°C 78% 6.5 mph W10.5 kmh W 8.3 mph13.4 kmh 29.29 in991.9 mb 0.01 in0.3 mm 0.00 in0.0 mm 0.01 in0.3 mm
03:20 AM 40.8°F4.9°C 34.5°F1.4°C 78% 5.4 mph NW8.7 kmh NW 6.9 mph11.1 kmh 29.29 in991.9 mb 0.00 in0.0 mm 0.00 in0.0 mm 0.01 in0.3 mm
03:30 AM 40.5°F4.7°C 34.2°F1.2°C 78% 3.3 mph WNW5.3 kmh WNW 4.5 mph7.2 kmh 29.29 in991.9 mb 0.00 in0.0 mm 0.00 in0.0 mm 0.01 in0.3 mm
03:40 AM 40.3°F4.6°C 34.3°F1.3°C 79% 3.8 mph NW6.1 kmh NW 6.9 mph11.1 kmh 29.30 in992.2 mb 0.00 in0.0 mm 0.00 in0.0 mm 0.01 in0.3 mm
03:50 AM 39.9°F4.4°C 34.3°F1.3°C 80% 2.9 mph NW4.7 kmh NW 3.8 mph6.1 kmh 29.30 in992.2 mb 0.00 in0.0 mm 0.00 in0.0 mm 0.01 in0.3 mm
04:00 AM 39.7°F4.3°C 34.1°F1.2°C 80% 3.0 mph WSW4.8 kmh WSW 4.5 mph7.2 kmh 29.30 in992.2 mb 0.00 in0.0 mm 0.00 in0.0 mm 0.01 in0.3 mm
04:10 AM 40.1°F4.5°C 34.4°F1.3°C 80% 4.6 mph W7.4 kmh W 9.2 mph14.8 kmh 29.32 in992.9 mb 0.00 in0.0 mm 0.00 in0.0 mm 0.01 in0.3 mm
04:20 AM 40.5°F4.7°C 34.8°F1.6°C 80% 8.7 mph NW14.0 kmh NW 11.4 mph18.3 kmh 29.32 in992.9 mb 0.00 in0.0 mm 0.00 in0.0 mm 0.01 in0.3 mm
04:30 AM 39.4°F4.1°C 33.4°F0.8°C 79% 8.3 mph NW13.4 kmh NW 13.0 mph20.9 kmh 29.32 in992.9 mb 0.00 in0.0 mm 0.00 in0.0 mm 0.01 in0.3 mm
04:40 AM 38.8°F3.8°C 32.9°F0.5°C 79% 5.4 mph NW8.7 kmh NW 8.3 mph13.4 kmh 29.32 in992.9 mb 0.00 in0.0 mm 0.00 in0.0 mm 0.01 in0.3 mm
04:50 AM 39.0°F3.9°C 33.4°F0.8°C 80% 9.0 mph WNW14.5 kmh WNW 14.5 mph23.3 kmh 29.34 in993.6 mb 0.00 in0.0 mm 0.00 in0.0 mm 0.01 in0.3 mm
05:00 AM 38.8°F3.8°C 33.2°F0.7°C 80% 9.4 mph NW15.1 kmh NW 13.6 mph21.9 kmh 29.34 in993.6 mb 0.00 in0.0 mm 0.00 in0.0 mm 0.01 in0.3 mm
05:10 AM 38.5°F3.6°C 32.9°F0.5°C 80% 6.0 mph NW9.7 kmh NW 10.7 mph17.2 kmh 29.34 in993.6 mb 0.00 in0.0 mm 0.00 in0.0 mm 0.01 in0.3 mm
05:20 AM 38.1°F3.4°C 32.5°F0.3°C 80% 5.0 mph W8.0 kmh W 7.6 mph12.2 kmh 29.34 in993.6 mb 0.00 in0.0 mm 0.00 in0.0 mm 0.01 in0.3 mm
05:30 AM 37.9°F3.3°C 32.3°F0.2°C 80% 3.8 mph NW6.1 kmh NW 8.3 mph13.4 kmh 29.35 in993.9 mb 0.00 in0.0 mm 0.00 in0.0 mm 0.01 in0.3 mm
05:40 AM 37.8°F3.2°C 32.2°F0.1°C 80% 3.3 mph NW5.3 kmh NW 4.5 mph7.2 kmh 29.35 in993.9 mb 0.00 in0.0 mm 0.00 in0.0 mm 0.01 in0.3 mm
05:50 AM 37.4°F3.0°C 31.8°F-0.1°C 80% 2.8 mph NW4.5 kmh NW 4.5 mph7.2 kmh 29.36 in994.2 mb 0.00 in0.0 mm 0.00 in0.0 mm 0.01 in0.3 mm
06:00 AM 37.0°F2.8°C 31.5°F-0.3°C 80% 2.1 mph SW3.4 kmh SW 3.8 mph6.1 kmh 29.36 in994.2 mb 0.00 in0.0 mm 0.00 in0.0 mm 0.01 in0.3 mm
06:10 AM 37.0°F2.8°C 31.8°F-0.1°C 81% 2.2 mph SW3.5 kmh SW 3.8 mph6.1 kmh 29.36 in994.2 mb 0.00 in0.0 mm 0.00 in0.0 mm 0.01 in0.3 mm
06:20 AM 37.2°F2.9°C 31.9°F-0.1°C 81% 2.2 mph SSW3.5 kmh SSW 3.8 mph6.1 kmh 29.36 in994.2 mb 0.00 in0.0 mm 0.00 in0.0 mm 0.01 in0.3 mm
06:30 AM 37.2°F2.9°C 31.9°F-0.1°C 81% 2.4 mph WSW3.9 kmh WSW 3.1 mph5.0 kmh 29.38 in994.9 mb 0.00 in0.0 mm 0.00 in0.0 mm 0.01 in0.3 mm
06:40 AM 37.6°F3.1°C 32.6°F0.3°C 82% 3.1 mph W5.0 kmh W 5.4 mph8.7 kmh 29.38 in994.9 mb 0.00 in0.0 mm 0.00 in0.0 mm 0.01 in0.3 mm
06:50 AM 37.8°F3.2°C 32.8°F0.4°C 82% 1.7 mph W2.7 kmh W 3.1 mph5.0 kmh 29.38 in994.9 mb 0.00 in0.0 mm 0.00 in0.0 mm 0.01 in0.3 mm
07:00 AM 37.9°F3.3°C 32.9°F0.5°C 82% 1.8 mph WSW2.9 kmh WSW 3.8 mph6.1 kmh 29.39 in995.3 mb 0.00 in0.0 mm 0.00 in0.0 mm 0.01 in0.3 mm
07:10 AM 38.8°F3.8°C 33.8°F1.0°C 82% 4.0 mph WSW6.4 kmh WSW 9.8 mph15.8 kmh 29.39 in995.3 mb 0.00 in0.0 mm 0.00 in0.0 mm 0.01 in0.3 mm
07:20 AM 39.4°F4.1°C 34.4°F1.3°C 82% 5.1 mph NW8.2 kmh NW 10.7 mph17.2 kmh 29.40 in995.6 mb 0.00 in0.0 mm 0.00 in0.0 mm 0.01 in0.3 mm
07:30 AM 40.8°F4.9°C 35.5°F1.9°C 81% 2.7 mph W4.3 kmh W 6.0 mph9.7 kmh 29.40 in995.6 mb 0.01 in0.3 mm 0.06 in1.5 mm 0.02 in0.5 mm
07:40 AM 41.5°F5.3°C 35.8°F2.1°C 80% 3.9 mph W6.3 kmh W 6.0 mph9.7 kmh 29.41 in995.9 mb 0.01 in0.3 mm 0.00 in0.0 mm 0.02 in0.5 mm
07:50 AM 40.6°F4.8°C 34.3°F1.3°C 78% 4.9 mph NW7.9 kmh NW 6.9 mph11.1 kmh 29.42 in996.3 mb 0.01 in0.3 mm 0.00 in0.0 mm 0.02 in0.5 mm
08:00 AM 43.2°F6.2°C 36.4°F2.4°C 77% 3.5 mph WNW5.6 kmh WNW 5.4 mph8.7 kmh 29.43 in996.6 mb 0.01 in0.3 mm 0.00 in0.0 mm 0.02 in0.5 mm
08:10 AM 45.3°F7.4°C 37.2°F2.9°C 73% 3.6 mph NW5.8 kmh NW 5.4 mph8.7 kmh 29.44 in997.0 mb 0.01 in0.3 mm 0.00 in0.0 mm 0.02 in0.5 mm
08:20 AM 45.7°F7.6°C 34.6°F1.4°C 65% 4.5 mph NW7.2 kmh NW 6.0 mph9.7 kmh 29.43 in996.6 mb 0.01 in0.3 mm 0.00 in0.0 mm 0.02 in0.5 mm
08:30 AM 46.9°F8.3°C 35.4°F1.9°C 64% 3.9 mph NW6.3 kmh NW 6.9 mph11.1 kmh 29.43 in996.6 mb 0.00 in0.0 mm 0.00 in0.0 mm 0.02 in0.5 mm
08:40 AM 47.3°F8.5°C 35.0°F1.7°C 62% 5.4 mph WNW8.7 kmh WNW 9.2 mph14.8 kmh 29.44 in997.0 mb 0.00 in0.0 mm 0.00 in0.0 mm 0.02 in0.5 mm
08:50 AM 47.5°F8.6°C 34.3°F1.3°C 60% 5.6 mph W9.0 kmh W 7.6 mph12.2 kmh 29.45 in997.3 mb 0.00 in0.0 mm 0.00 in0.0 mm 0.02 in0.5 mm
09:00 AM 47.8°F8.8°C 34.6°F1.4°C 60% 5.2 mph WNW8.4 kmh WNW 7.6 mph12.2 kmh 29.45 in997.3 mb 0.00 in0.0 mm 0.00 in0.0 mm 0.02 in0.5 mm
09:10 AM 47.5°F8.6°C 34.3°F1.3°C 60% 5.6 mph NW9.0 kmh NW 8.3 mph13.4 kmh 29.46 in997.6 mb 0.00 in0.0 mm 0.00 in0.0 mm 0.02 in0.5 mm
09:20 AM 47.7°F8.7°C 34.5°F1.4°C 60% 5.3 mph NNW8.5 kmh NNW 12.1 mph19.5 kmh 29.45 in997.3 mb 0.00 in0.0 mm 0.00 in0.0 mm 0.02 in0.5 mm
09:30 AM 47.1°F8.4°C 33.5°F0.8°C 59% 9.1 mph NW14.6 kmh NW 12.1 mph19.5 kmh 29.46 in997.6 mb 0.00 in0.0 mm 0.00 in0.0 mm 0.02 in0.5 mm
09:40 AM 46.9°F8.3°C 33.4°F0.8°C 59% 8.0 mph NNW12.9 kmh NNW 11.4 mph18.3 kmh 29.46 in997.6 mb 0.00 in0.0 mm 0.00 in0.0 mm 0.02 in0.5 mm
09:50 AM 47.3°F8.5°C 32.4°F0.2°C 56% 8.5 mph NW13.7 kmh NW 11.4 mph18.3 kmh 29.46 in997.6 mb 0.00 in0.0 mm 0.00 in0.0 mm 0.02 in0.5 mm
10:00 AM 47.8°F8.8°C 32.9°F0.5°C 56% 9.1 mph WNW14.6 kmh WNW 13.0 mph20.9 kmh 29.47 in998.0 mb 0.00 in0.0 mm 0.00 in0.0 mm 0.02 in0.5 mm
10:10 AM 49.5°F9.7°C 34.0°F1.1°C 55% 8.5 mph NW13.7 kmh NW 10.7 mph17.2 kmh 29.47 in998.0 mb 0.00 in0.0 mm 0.00 in0.0 mm 0.02 in0.5 mm
10:20 AM 46.9°F8.3°C 29.8°F-1.2°C 51% 11.1 mph WNW17.9 kmh WNW 15.9 mph25.6 kmh 29.47 in998.0 mb 0.00 in0.0 mm 0.00 in0.0 mm 0.02 in0.5 mm
10:30 AM 46.2°F7.9°C 31.8°F-0.1°C 57% 10.8 mph NW17.4 kmh NW 15.2 mph24.5 kmh 29.49 in998.6 mb 0.00 in0.0 mm 0.00 in0.0 mm 0.02 in0.5 mm
10:40 AM 48.4°F9.1°C 34.7°F1.5°C 59% 8.4 mph WNW13.5 kmh WNW 12.1 mph19.5 kmh 29.48 in998.3 mb 0.00 in0.0 mm 0.00 in0.0 mm 0.02 in0.5 mm
10:50 AM 49.1°F9.5°C 32.7°F0.4°C 53% 10.9 mph NW17.5 kmh NW 13.6 mph21.9 kmh 29.49 in998.6 mb 0.00 in0.0 mm 0.00 in0.0 mm 0.02 in0.5 mm
11:00 AM 50.0°F10.0°C 32.6°F0.3°C 51% 9.3 mph NW15.0 kmh NW 13.0 mph20.9 kmh 29.49 in998.6 mb 0.00 in0.0 mm 0.00 in0.0 mm 0.02 in0.5 mm
11:10 AM 49.8°F9.9°C 32.4°F0.2°C 51% 10.5 mph NW16.9 kmh NW 15.9 mph25.6 kmh 29.49 in998.6 mb 0.00 in0.0 mm 0.00 in0.0 mm 0.02 in0.5 mm
11:20 AM 50.7°F10.4°C 32.8°F0.4°C 50% 9.6 mph NW15.4 kmh NW 14.5 mph23.3 kmh 29.48 in998.3 mb 0.00 in0.0 mm 0.00 in0.0 mm 0.02 in0.5 mm
11:30 AM 50.4°F10.2°C 31.4°F-0.3°C 48% 10.6 mph NW17.1 kmh NW 12.1 mph19.5 kmh 29.49 in998.6 mb 0.00 in0.0 mm 0.00 in0.0 mm 0.02 in0.5 mm
11:40 AM 52.0°F11.1°C 33.4°F0.8°C 49% 8.8 mph NW14.2 kmh NW 10.7 mph17.2 kmh 29.50 in999.0 mb 0.00 in0.0 mm 0.00 in0.0 mm 0.02 in0.5 mm
11:50 AM 49.1°F9.5°C 30.3°F-0.9°C 48% 12.0 mph NW19.3 kmh NW 14.5 mph23.3 kmh 29.50 in999.0 mb 0.00 in0.0 mm 0.00 in0.0 mm 0.02 in0.5 mm
12:00 PM 47.7°F8.7°C 32.7°F0.4°C 56% 7.3 mph NW11.7 kmh NW 12.1 mph19.5 kmh 29.51 in999.3 mb 0.00 in0.0 mm 0.00 in0.0 mm 0.02 in0.5 mm
12:10 PM 49.8°F9.9°C 33.9°F1.1°C 54% 7.5 mph NW12.1 kmh NW 9.8 mph15.8 kmh 29.50 in999.0 mb 0.00 in0.0 mm 0.00 in0.0 mm 0.02 in0.5 mm
12:20 PM 52.0°F11.1°C 33.9°F1.1°C 50% 8.6 mph WNW13.8 kmh WNW 12.1 mph19.5 kmh 29.52 in999.7 mb 0.00 in0.0 mm 0.00 in0.0 mm 0.02 in0.5 mm
12:30 PM 50.9°F10.5°C 28.6°F-1.9°C 42% 12.6 mph NW20.3 kmh NW 17.4 mph28.0 kmh 29.52 in999.7 mb 0.00 in0.0 mm 0.00 in0.0 mm 0.02 in0.5 mm
12:40 PM 51.3°F10.7°C 30.1°F-1.1°C 44% 11.3 mph NW18.2 kmh NW 13.6 mph21.9 kmh 29.52 in999.7 mb 0.00 in0.0 mm 0.00 in0.0 mm 0.02 in0.5 mm
12:50 PM 51.8°F11.0°C 30.6°F-0.8°C 44% 10.2 mph WSW16.4 kmh WSW 13.6 mph21.9 kmh 29.52 in999.7 mb 0.00 in0.0 mm 0.00 in0.0 mm 0.02 in0.5 mm
01:00 PM 53.2°F11.8°C 30.8°F-0.7°C 42% 10.2 mph WNW16.4 kmh WNW 13.6 mph21.9 kmh 29.52 in999.7 mb 0.00 in0.0 mm 0.00 in0.0 mm 0.02 in0.5 mm
01:10 PM 53.6°F12.0°C 30.5°F-0.8°C 41% 11.7 mph NW18.8 kmh NW 15.2 mph24.5 kmh 29.53 in1000.0 mb 0.00 in0.0 mm 0.00 in0.0 mm 0.02 in0.5 mm
01:20 PM 52.5°F11.4°C 28.9°F-1.7°C 40% 12.7 mph NW20.4 kmh NW 19.0 mph30.6 kmh 29.52 in999.7 mb 0.00 in0.0 mm 0.00 in0.0 mm 0.02 in0.5 mm
01:30 PM 52.3°F11.3°C 28.7°F-1.8°C 40% 11.0 mph NW17.7 kmh NW 16.8 mph27.0 kmh 29.53 in1000.0 mb 0.00 in0.0 mm 0.00 in0.0 mm 0.02 in0.5 mm
01:40 PM 51.3°F10.7°C 27.8°F-2.3°C 40% 13.2 mph NW21.2 kmh NW 19.0 mph30.6 kmh 29.53 in1000.0 mb 0.00 in0.0 mm 0.00 in0.0 mm 0.02 in0.5 mm
01:50 PM 50.4°F10.2°C 28.2°F-2.1°C 42% 12.8 mph NNW20.6 kmh NNW 18.3 mph29.5 kmh 29.54 in1000.3 mb 0.00 in0.0 mm 0.00 in0.0 mm 0.02 in0.5 mm
02:00 PM 49.6°F9.8°C 28.6°F-1.9°C 44% 10.8 mph NW17.4 kmh NW 14.5 mph23.3 kmh 29.54 in1000.3 mb 0.00 in0.0 mm 0.00 in0.0 mm 0.02 in0.5 mm
02:10 PM 51.6°F10.9°C 29.3°F-1.5°C 42% 11.9 mph NW19.2 kmh NW 15.2 mph24.5 kmh 29.54 in1000.3 mb 0.00 in0.0 mm 0.00 in0.0 mm 0.02 in0.5 mm
02:20 PM 51.8°F11.0°C 28.3°F-2.1°C 40% 13.8 mph WNW22.2 kmh WNW 15.9 mph25.6 kmh 29.55 in1000.7 mb 0.00 in0.0 mm 0.00 in0.0 mm 0.02 in0.5 mm
02:30 PM 50.7°F10.4°C 27.9°F-2.3°C 41% 13.3 mph NW21.4 kmh NW 19.0 mph30.6 kmh 29.55 in1000.7 mb 0.00 in0.0 mm 0.00 in0.0 mm 0.02 in0.5 mm
02:40 PM 50.0°F10.0°C 27.8°F-2.3°C 42% 11.3 mph NW18.2 kmh NW 14.5 mph23.3 kmh 29.55 in1000.7 mb 0.00 in0.0 mm 0.00 in0.0 mm 0.02 in0.5 mm
02:50 PM 52.7°F11.5°C 29.7°F-1.3°C 41% 10.7 mph NW17.2 kmh NW 14.5 mph23.3 kmh 29.55 in1000.7 mb 0.00 in0.0 mm 0.00 in0.0 mm 0.02 in0.5 mm
03:00 PM 51.1°F10.6°C 29.4°F-1.4°C 43% 11.1 mph NW17.9 kmh NW 15.2 mph24.5 kmh 29.55 in1000.7 mb 0.00 in0.0 mm 0.00 in0.0 mm 0.02 in0.5 mm
03:10 PM 51.8°F11.0°C 30.6°F-0.8°C 44% 10.7 mph NW17.2 kmh NW 14.5 mph23.3 kmh 29.55 in1000.7 mb 0.00 in0.0 mm 0.00 in0.0 mm 0.02 in0.5 mm
03:20 PM 49.8°F9.9°C 28.2°F-2.1°C 43% 14.9 mph NW24.0 kmh NW 19.7 mph31.7 kmh 29.55 in1000.7 mb 0.00 in0.0 mm 0.00 in0.0 mm 0.02 in0.5 mm
03:30 PM 50.5°F10.3°C 28.9°F-1.7°C 43% 13.8 mph NW22.2 kmh NW 22.1 mph35.6 kmh 29.56 in1001.0 mb 0.00 in0.0 mm 0.00 in0.0 mm 0.02 in0.5 mm
03:40 PM 51.1°F10.6°C 31.0°F-0.6°C 46% 11.0 mph NW17.7 kmh NW 15.2 mph24.5 kmh 29.57 in1001.4 mb 0.00 in0.0 mm 0.00 in0.0 mm 0.02 in0.5 mm
03:50 PM 50.2°F10.1°C 31.3°F-0.4°C 48% 15.5 mph NW24.9 kmh NW 22.1 mph35.6 kmh 29.56 in1001.0 mb 0.00 in0.0 mm 0.00 in0.0 mm 0.02 in0.5 mm
04:00 PM 48.7°F9.3°C 31.4°F-0.3°C 51% 12.0 mph NW19.3 kmh NW 16.8 mph27.0 kmh 29.57 in1001.4 mb 0.00 in0.0 mm 0.00 in0.0 mm 0.02 in0.5 mm
04:10 PM 47.7°F8.7°C 31.8°F-0.1°C 54% 12.1 mph NW19.5 kmh NW 14.5 mph23.3 kmh 29.57 in1001.4 mb 0.00 in0.0 mm 0.00 in0.0 mm 0.02 in0.5 mm
04:20 PM 46.8°F8.2°C 32.8°F0.4°C 58% 13.7 mph WNW22.0 kmh WNW 17.4 mph28.0 kmh 29.58 in1001.7 mb 0.00 in0.0 mm 0.00 in0.0 mm 0.02 in0.5 mm
04:30 PM 45.3°F7.4°C 34.6°F1.4°C 66% 12.9 mph NW20.8 kmh NW 19.0 mph30.6 kmh 29.59 in1002.0 mb 0.00 in0.0 mm 0.00 in0.0 mm 0.02 in0.5 mm
04:40 PM 45.0°F7.2°C 35.8°F2.1°C 70% 8.9 mph NW14.3 kmh NW 13.6 mph21.9 kmh 29.59 in1002.0 mb 0.00 in0.0 mm 0.00 in0.0 mm 0.02 in0.5 mm
04:50 PM 44.4°F6.9°C 36.3°F2.4°C 73% 6.0 mph NW9.7 kmh NW 9.8 mph15.8 kmh 29.59 in1002.0 mb 0.01 in0.3 mm 0.06 in1.5 mm 0.04 in1.0 mm
05:00 PM 44.4°F6.9°C 37.3°F2.9°C 76% 6.8 mph NW10.9 kmh NW 9.8 mph15.8 kmh 29.59 in1002.0 mb 0.01 in0.3 mm 0.00 in0.0 mm 0.04 in1.0 mm
05:10 PM 46.8°F8.2°C 38.2°F3.4°C 72% 4.2 mph W6.8 kmh W 6.9 mph11.1 kmh 29.59 in1002.0 mb 0.01 in0.3 mm 0.00 in0.0 mm 0.04 in1.0 mm
05:20 PM 47.1°F8.4°C 37.8°F3.2°C 70% 5.7 mph W9.2 kmh W 9.8 mph15.8 kmh 29.59 in1002.0 mb 0.01 in0.3 mm 0.00 in0.0 mm 0.04 in1.0 mm
05:30 PM 46.0°F7.8°C 36.4°F2.4°C 69% 5.4 mph WNW8.7 kmh WNW 6.9 mph11.1 kmh 29.59 in1002.0 mb 0.01 in0.3 mm 0.00 in0.0 mm 0.04 in1.0 mm
05:40 PM 45.9°F7.7°C 36.6°F2.6°C 70% 8.1 mph NW13.0 kmh NW 11.4 mph18.3 kmh 29.60 in1002.4 mb 0.01 in0.3 mm 0.00 in0.0 mm 0.04 in1.0 mm
05:50 PM 46.2°F7.9°C 37.0°F2.8°C 70% 10.2 mph NW16.4 kmh NW 15.2 mph24.5 kmh 29.60 in1002.4 mb 0.00 in0.0 mm 0.00 in0.0 mm 0.04 in1.0 mm
06:00 PM 46.2°F7.9°C 36.6°F2.6°C 69% 9.8 mph NW15.8 kmh NW 13.0 mph20.9 kmh 29.60 in1002.4 mb 0.00 in0.0 mm 0.00 in0.0 mm 0.04 in1.0 mm
06:10 PM 46.2°F7.9°C 35.5°F1.9°C 66% 12.6 mph NNW20.3 kmh NNW 18.3 mph29.5 kmh 29.62 in1003.0 mb 0.00 in0.0 mm 0.00 in0.0 mm 0.04 in1.0 mm
06:20 PM 45.9°F7.7°C 35.2°F1.8°C 66% 11.2 mph NW18.0 kmh NW 13.0 mph20.9 kmh 29.61 in1002.7 mb 0.00 in0.0 mm 0.00 in0.0 mm 0.04 in1.0 mm
06:30 PM 46.0°F7.8°C 35.3°F1.8°C 66% 11.4 mph NW18.3 kmh NW 17.4 mph28.0 kmh 29.62 in1003.0 mb 0.00 in0.0 mm 0.00 in0.0 mm 0.04 in1.0 mm
06:40 PM 46.2°F7.9°C 35.9°F2.2°C 67% 10.6 mph NW17.1 kmh NW 13.0 mph20.9 kmh 29.62 in1003.0 mb 0.00 in0.0 mm 0.00 in0.0 mm 0.04 in1.0 mm
06:50 PM 46.4°F8.0°C 36.8°F2.7°C 69% 12.8 mph NW20.6 kmh NW 19.0 mph30.6 kmh 29.64 in1003.7 mb 0.00 in0.0 mm 0.00 in0.0 mm 0.04 in1.0 mm
07:00 PM 45.7°F7.6°C 35.0°F1.7°C 66% 13.5 mph NW21.7 kmh NW 21.3 mph34.3 kmh 29.65 in1004.1 mb 0.00 in0.0 mm 0.00 in0.0 mm 0.04 in1.0 mm
07:10 PM 45.3°F7.4°C 36.1°F2.3°C 70% 9.9 mph NW15.9 kmh NW 12.1 mph19.5 kmh 29.65 in1004.1 mb 0.00 in0.0 mm 0.00 in0.0 mm 0.04 in1.0 mm
07:20 PM 45.3°F7.4°C 36.1°F2.3°C 70% 10.0 mph NW16.1 kmh NW 13.0 mph20.9 kmh 29.66 in1004.4 mb 0.00 in0.0 mm 0.00 in0.0 mm 0.04 in1.0 mm
07:30 PM 45.1°F7.3°C 35.9°F2.2°C 70% 7.3 mph NW11.7 kmh NW 11.4 mph18.3 kmh 29.67 in1004.7 mb 0.00 in0.0 mm 0.00 in0.0 mm 0.04 in1.0 mm
07:40 PM 45.0°F7.2°C 35.8°F2.1°C 70% 8.4 mph NW13.5 kmh NW 10.7 mph17.2 kmh 29.67 in1004.7 mb 0.00 in0.0 mm 0.00 in0.0 mm 0.04 in1.0 mm
07:50 PM 45.1°F7.3°C 35.9°F2.2°C 70% 10.1 mph NW16.3 kmh NW 12.1 mph19.5 kmh 29.68 in1005.1 mb 0.00 in0.0 mm 0.00 in0.0 mm 0.04 in1.0 mm
08:00 PM 45.3°F7.4°C 36.5°F2.5°C 71% 9.0 mph NW14.5 kmh NW 12.1 mph19.5 kmh 29.69 in1005.4 mb 0.00 in0.0 mm 0.00 in0.0 mm 0.04 in1.0 mm
08:10 PM 45.1°F7.3°C 36.7°F2.6°C 72% 6.4 mph NW10.3 kmh NW 9.2 mph14.8 kmh 29.69 in1005.4 mb 0.00 in0.0 mm 0.00 in0.0 mm 0.04 in1.0 mm
08:20 PM 45.0°F7.2°C 36.8°F2.7°C 73% 4.8 mph NW7.7 kmh NW 9.8 mph15.8 kmh 29.69 in1005.4 mb 0.00 in0.0 mm 0.00 in0.0 mm 0.04 in1.0 mm
08:30 PM 44.8°F7.1°C 36.7°F2.6°C 73% 5.0 mph NW8.0 kmh NW 6.9 mph11.1 kmh 29.70 in1005.8 mb 0.00 in0.0 mm 0.00 in0.0 mm 0.04 in1.0 mm
08:40 PM 44.6°F7.0°C 36.8°F2.7°C 74% 3.9 mph NW6.3 kmh NW 6.0 mph9.7 kmh 29.70 in1005.8 mb 0.00 in0.0 mm 0.00 in0.0 mm 0.04 in1.0 mm
08:50 PM 44.1°F6.7°C 36.3°F2.4°C 74% 2.9 mph WNW4.7 kmh WNW 4.5 mph7.2 kmh 29.70 in1005.8 mb 0.00 in0.0 mm 0.00 in0.0 mm 0.04 in1.0 mm
09:00 PM 44.1°F6.7°C 36.7°F2.6°C 75% 3.3 mph NW5.3 kmh NW 5.4 mph8.7 kmh 29.70 in1005.8 mb 0.00 in0.0 mm 0.00 in0.0 mm 0.04 in1.0 mm
09:10 PM 44.4°F6.9°C 37.3°F2.9°C 76% 4.0 mph NW6.4 kmh NW 6.9 mph11.1 kmh 29.71 in1006.1 mb 0.00 in0.0 mm 0.00 in0.0 mm 0.04 in1.0 mm
09:20 PM 44.8°F7.1°C 37.3°F2.9°C 75% 4.9 mph NW7.9 kmh NW 8.3 mph13.4 kmh 29.72 in1006.4 mb 0.00 in0.0 mm 0.00 in0.0 mm 0.04 in1.0 mm
09:30 PM 44.6°F7.0°C 36.8°F2.7°C 74% 3.6 mph W5.8 kmh W 4.5 mph7.2 kmh 29.72 in1006.4 mb 0.00 in0.0 mm 0.00 in0.0 mm 0.04 in1.0 mm
09:40 PM 45.0°F7.2°C 37.2°F2.9°C 74% 4.7 mph NW7.6 kmh NW 6.9 mph11.1 kmh 29.72 in1006.4 mb 0.00 in0.0 mm 0.00 in0.0 mm 0.04 in1.0 mm
09:50 PM 45.1°F7.3°C 37.4°F3.0°C 74% 5.3 mph NW8.5 kmh NW 8.3 mph13.4 kmh 29.74 in1007.1 mb 0.00 in0.0 mm 0.00 in0.0 mm 0.04 in1.0 mm
10:00 PM 45.3°F7.4°C 37.2°F2.9°C 73% 5.0 mph NW8.0 kmh NW 6.9 mph11.1 kmh 29.73 in1006.8 mb 0.00 in0.0 mm 0.00 in0.0 mm 0.04 in1.0 mm
10:10 PM 45.3°F7.4°C 36.8°F2.7°C 72% 5.3 mph NW8.5 kmh NW 6.0 mph9.7 kmh 29.74 in1007.1 mb 0.00 in0.0 mm 0.00 in0.0 mm 0.04 in1.0 mm
10:20 PM 45.7°F7.6°C 35.7°F2.1°C 68% 7.6 mph NW12.2 kmh NW 9.2 mph14.8 kmh 29.74 in1007.1 mb 0.00 in0.0 mm 0.00 in0.0 mm 0.04 in1.0 mm
10:30 PM 45.7°F7.6°C 35.4°F1.9°C 67% 7.1 mph NW11.4 kmh NW 9.2 mph14.8 kmh 29.75 in1007.5 mb 0.00 in0.0 mm 0.00 in0.0 mm 0.04 in1.0 mm
10:40 PM 45.7°F7.6°C 35.4°F1.9°C 67% 7.5 mph WNW12.1 kmh WNW 11.4 mph18.3 kmh 29.75 in1007.5 mb 0.00 in0.0 mm 0.00 in0.0 mm 0.04 in1.0 mm
10:50 PM 45.7°F7.6°C 35.4°F1.9°C 67% 8.1 mph NW13.0 kmh NW 11.4 mph18.3 kmh 29.76 in1007.8 mb 0.00 in0.0 mm 0.00 in0.0 mm 0.04 in1.0 mm
11:00 PM 45.5°F7.5°C 34.8°F1.6°C 66% 5.3 mph NW8.5 kmh NW 8.3 mph13.4 kmh 29.76 in1007.8 mb 0.00 in0.0 mm 0.00 in0.0 mm 0.04 in1.0 mm
11:10 PM 45.1°F7.3°C 36.3°F2.4°C 71% 4.9 mph NW7.9 kmh NW 6.0 mph9.7 kmh 29.76 in1007.8 mb 0.00 in0.0 mm 0.00 in0.0 mm 0.04 in1.0 mm
11:20 PM 45.1°F7.3°C 36.3°F2.4°C 71% 5.8 mph NNW9.3 kmh NNW 9.2 mph14.8 kmh 29.76 in1007.8 mb 0.00 in0.0 mm 0.00 in0.0 mm 0.04 in1.0 mm
11:30 PM 44.6°F7.0°C 35.4°F1.9°C 70% 3.8 mph NNW6.1 kmh NNW 7.6 mph12.2 kmh 29.77 in1008.1 mb 0.00 in0.0 mm 0.00 in0.0 mm 0.04 in1.0 mm
11:40 PM 44.4°F6.9°C 35.6°F2.0°C 71% 3.5 mph NW5.6 kmh NW 5.4 mph8.7 kmh 29.78 in1008.5 mb 0.00 in0.0 mm 0.00 in0.0 mm 0.04 in1.0 mm
11:50 PM 44.1°F6.7°C 35.3°F1.8°C 71% 2.8 mph NW4.5 kmh NW 4.5 mph7.2 kmh 29.78 in1008.5 mb 0.00 in0.0 mm 0.00 in0.0 mm 0.04 in1.0 mm